Time;durP1;ratioP1;P1;durP2;ratioP2;P2;SDS_P1;SDS_P2;PMS_P1;PMS_P2;Temp;Humidity;BMP_temperature;BMP_pressure;BME280_temperature;BME280_humidity;BME280_pressure;Samples;Min_cycle;Max_cycle;Signal;HPM_P1;HPM_P2
2022/01/12 00:01:16;;;;;;;61.65;27.42;;;3.70;99.90;;;;;;5073379;28;20496;-74
2022/01/12 00:03:46;;;;;;;62.78;28.95;;;3.50;99.90;;;;;;5073437;28;20052;-73
2022/01/12 00:06:13;;;;;;;65.18;29.27;;;3.50;99.90;;;;;;5073232;28;20483;-74
2022/01/12 00:08:41;;;;;;;52.80;26.08;;;3.60;99.90;;;;;;5073379;28;20130;-74
2022/01/12 00:11:08;;;;;;;68.97;32.13;;;3.50;99.90;;;;;;5073084;28;20059;-75
2022/01/12 00:13:35;;;;;;;71.72;29.10;;;3.60;99.90;;;;;;5073028;28;20094;-74
2022/01/12 00:16:03;;;;;;;61.00;28.25;;;3.60;99.90;;;;;;5073380;28;20129;-74
2022/01/12 00:18:31;;;;;;;62.55;26.65;;;3.60;99.90;;;;;;5072714;28;20549;-74
2022/01/12 00:20:59;;;;;;;62.13;27.35;;;3.60;99.90;;;;;;5073073;28;20060;-73
2022/01/12 00:23:26;;;;;;;63.28;27.85;;;3.60;99.90;;;;;;5072715;28;20090;-74
2022/01/12 00:26:03;;;;;;;70.18;28.90;;;3.60;99.90;;;;;;5071984;28;20128;-73
2022/01/12 00:34:01;;;;;;;99.28;36.92;;;3.70;99.90;;;;;;5072084;28;20385;-73
2022/01/12 00:36:30;;;;;;;64.35;27.42;;;3.60;99.90;;;;;;5073382;28;20053;-74
2022/01/12 00:38:58;;;;;;;65.53;28.70;;;3.60;99.90;;;;;;5072671;28;20044;-73
2022/01/12 00:41:25;;;;;;;82.25;29.13;;;3.60;99.90;;;;;;5072267;28;20093;-75
2022/01/12 00:43:57;;;;;;;69.18;30.27;;;3.70;99.90;;;;;;5072873;28;20052;-74
2022/01/12 00:46:25;;;;;;;77.85;31.52;;;3.60;99.90;;;;;;5071979;28;20098;-74
2022/01/12 00:48:54;;;;;;;75.45;30.50;;;3.60;99.90;;;;;;5072440;28;20048;-74
2022/01/12 00:51:21;;;;;;;88.43;30.95;;;3.70;99.90;;;;;;5072410;28;20131;-74
2022/01/12 00:53:49;;;;;;;114.63;34.42;;;3.60;99.90;;;;;;5072305;28;20126;-74
2022/01/12 00:56:16;;;;;;;65.10;27.60;;;3.70;99.90;;;;;;5072271;28;20056;-75
2022/01/12 00:58:43;;;;;;;139.70;42.17;;;3.70;99.90;;;;;;5074337;28;20048;-74
2022/01/12 01:01:10;;;;;;;126.93;37.72;;;3.70;99.90;;;;;;5075567;28;20044;-75
2022/01/12 01:03:37;;;;;;;100.82;34.45;;;3.70;99.90;;;;;;5073865;28;20118;-75
2022/01/12 01:06:06;;;;;;;142.85;42.47;;;3.70;99.90;;;;;;5072650;28;20113;-74
2022/01/12 01:08:33;;;;;;;122.85;38.30;;;3.70;99.90;;;;;;5071862;28;20048;-75
2022/01/12 01:11:02;;;;;;;155.40;42.03;;;3.70;99.90;;;;;;5072246;28;20102;-74
2022/01/12 01:13:34;;;;;;;106.90;34.38;;;3.80;99.90;;;;;;5072303;28;20465;-75
2022/01/12 01:16:10;;;;;;;153.20;41.90;;;3.80;99.90;;;;;;5071299;28;20055;-74
2022/01/12 01:26:49;;;;;;;141.73;36.83;;;3.80;99.90;;;;;;5012283;28;20171;-75
2022/01/12 01:29:16;;;;;;;262.70;54.53;;;3.80;99.90;;;;;;5068136;28;20052;-74
2022/01/12 01:31:44;;;;;;;234.50;53.67;;;3.80;99.90;;;;;;5051915;28;20455;-75
2022/01/12 01:34:14;;;;;;;227.88;50.95;;;3.90;99.90;;;;;;5052008;28;20114;-74
2022/01/12 01:36:43;;;;;;;205.68;46.72;;;3.80;99.90;;;;;;5071498;28;20135;-75
2022/01/12 01:39:13;;;;;;;185.63;45.92;;;3.80;99.90;;;;;;5071702;28;20049;-74
2022/01/12 01:41:43;;;;;;;134.52;37.63;;;3.90;99.90;;;;;;5071904;28;20083;-74
2022/01/12 01:55:15;;;;;;;147.25;38.38;;;3.90;99.90;;;;;;5071292;28;20040;-74
2022/01/12 01:57:42;;;;;;;106.70;31.95;;;3.90;99.90;;;;;;5072604;28;20044;-75
2022/01/12 02:00:14;;;;;;;103.20;33.15;;;4.00;99.90;;;;;;5071470;28;20056;-74
2022/01/12 02:02:43;;;;;;;98.10;33.75;;;4.00;99.90;;;;;;5071443;28;20036;-75
2022/01/12 02:05:10;;;;;;;72.05;30.10;;;4.00;99.90;;;;;;5071120;28;20052;-74
2022/01/12 02:07:37;;;;;;;78.72;30.98;;;4.00;99.90;;;;;;5073654;28;20400;-75
2022/01/12 02:10:05;;;;;;;59.10;26.95;;;4.00;99.90;;;;;;5075678;28;20098;-74
2022/01/12 02:12:32;;;;;;;87.95;30.08;;;4.00;99.90;;;;;;5074993;28;20045;-74
2022/01/12 02:15:01;;;;;;;80.70;28.50;;;4.00;99.90;;;;;;5075467;28;20550;-74
2022/01/12 02:17:35;;;;;;;85.78;29.98;;;4.10;99.90;;;;;;5075795;28;20403;-74
2022/01/12 02:20:26;;;;;;;65.20;27.77;;;4.00;99.90;;;;;;5074976;28;20067;-74
2022/01/12 02:36:55;;;;;;;57.92;24.50;;;4.20;99.90;;;;;;5075168;28;20113;-75
2022/01/12 02:39:50;;;;;;;60.47;24.50;;;4.20;99.90;;;;;;5074728;28;20438;-74
2022/01/12 02:42:18;;;;;;;51.47;22.58;;;4.20;99.90;;;;;;5075563;28;20052;-74
2022/01/12 02:55:44;;;;;;;52.38;23.30;;;4.40;99.90;;;;;;5074344;28;20404;-74
2022/01/12 02:58:11;;;;;;;45.25;21.27;;;4.30;99.90;;;;;;5074608;28;20049;-74
2022/01/12 03:00:56;;;;;;;53.50;24.10;;;4.40;99.90;;;;;;5073916;28;20060;-74
2022/01/12 03:03:24;;;;;;;45.10;21.35;;;4.30;99.90;;;;;;5074946;28;20404;-74
2022/01/12 03:05:58;;;;;;;45.35;19.52;;;4.30;99.90;;;;;;5074528;28;20052;-74
2022/01/12 03:08:26;;;;;;;45.08;21.40;;;4.30;99.90;;;;;;5075339;28;20072;-75
2022/01/12 03:10:54;;;;;;;43.15;22.05;;;4.20;99.90;;;;;;5074377;28;20052;-75
2022/01/12 03:13:22;;;;;;;47.67;21.70;;;4.20;99.90;;;;;;5074631;28;20041;-74
2022/01/12 03:15:50;;;;;;;58.20;24.73;;;4.00;99.90;;;;;;5074809;28;20056;-74
2022/01/12 03:18:16;;;;;;;52.63;22.33;;;3.90;99.90;;;;;;5074369;28;20052;-74
2022/01/12 03:20:45;;;;;;;98.15;29.65;;;3.80;99.90;;;;;;5074100;28;20048;-75
2022/01/12 03:23:12;;;;;;;71.78;29.60;;;3.70;99.90;;;;;;5073891;28;20080;-75
2022/01/12 03:25:39;;;;;;;100.90;31.23;;;3.50;99.90;;;;;;5073579;28;20113;-74
2022/01/12 03:28:07;;;;;;;62.63;24.50;;;3.40;99.90;;;;;;5073738;28;20094;-74
2022/01/12 03:30:41;;;;;;;107.57;26.77;;;3.30;99.90;;;;;;5074373;28;20068;-75
2022/01/12 03:33:13;;;;;;;121.50;32.30;;;3.20;99.90;;;;;;5074157;28;20052;-74
2022/01/12 03:36:01;;;;;;;87.30;25.00;;;3.10;99.90;;;;;;5073576;28;20153;-74
2022/01/12 03:38:28;;;;;;;278.08;40.10;;;3.10;99.90;;;;;;5074321;28;20476;-74
2022/01/12 03:40:55;;;;;;;171.00;31.88;;;3.00;99.90;;;;;;5074146;28;20126;-74
2022/01/12 03:43:23;;;;;;;283.42;46.22;;;2.90;99.90;;;;;;5073577;28;20049;-74
2022/01/12 03:45:50;;;;;;;236.02;35.45;;;2.90;99.90;;;;;;5073906;28;20106;-74
2022/01/12 03:48:17;;;;;;;452.52;61.38;;;2.80;99.90;;;;;;5075066;28;20373;-74
2022/01/12 03:50:44;;;;;;;362.92;58.30;;;2.80;99.90;;;;;;5073270;28;20542;-75
2022/01/12 03:53:11;;;;;;;226.20;25.77;;;2.70;99.90;;;;;;5073596;28;20090;-75
2022/01/12 03:55:38;;;;;;;193.55;27.10;;;2.60;99.90;;;;;;5073128;28;20492;-75
2022/01/12 03:58:05;;;;;;;488.77;65.97;;;2.60;99.90;;;;;;5072931;28;20125;-75
2022/01/12 04:00:34;;;;;;;154.98;24.90;;;2.50;99.90;;;;;;5073488;28;20068;-76
2022/01/12 04:03:03;;;;;;;312.63;41.22;;;2.50;99.90;;;;;;5074801;28;20044;-75
2022/01/12 04:08:18;;;;;;;183.55;32.03;;;2.50;99.90;;;;;;5072765;28;20056;-74
2022/01/12 04:08:19;;;;;;;98.13;19.20;;;2.60;99.90;;;;;;5073508;28;20508;-74
2022/01/12 04:10:46;;;;;;;158.60;22.50;;;2.40;99.90;;;;;;5072832;28;20072;-74
2022/01/12 04:13:13;;;;;;;138.48;23.75;;;2.40;99.90;;;;;;5073530;28;20106;-75
2022/01/12 04:15:42;;;;;;;245.77;33.22;;;2.30;99.90;;;;;;5072881;28;20135;-74
2022/01/12 04:18:09;;;;;;;103.25;20.83;;;2.20;99.90;;;;;;5072735;28;20052;-75
2022/01/12 04:20:38;;;;;;;231.00;25.13;;;2.20;99.90;;;;;;5073288;28;20103;-74
2022/01/12 04:23:20;;;;;;;280.88;25.42;;;2.10;99.90;;;;;;5072952;28;20051;-74
2022/01/12 04:25:47;;;;;;;388.88;45.45;;;2.10;99.90;;;;;;5072403;28;20079;-75
2022/01/12 04:28:16;;;;;;;327.55;28.73;;;2.00;99.90;;;;;;5072974;28;20056;-74
2022/01/12 04:30:45;;;;;;;374.48;33.15;;;2.10;99.90;;;;;;5072676;28;20052;-73
2022/01/12 04:33:12;;;;;;;266.15;24.90;;;1.90;99.90;;;;;;5072094;28;20049;-73
2022/01/12 04:35:46;;;;;;;307.23;31.45;;;1.80;99.90;;;;;;5072569;28;20053;-74
2022/01/12 04:38:14;;;;;;;266.98;23.90;;;1.80;99.90;;;;;;5073711;28;20151;-74
2022/01/12 04:40:41;;;;;;;242.65;22.30;;;1.80;99.90;;;;;;5073726;28;20056;-74
2022/01/12 04:43:09;;;;;;;278.83;23.30;;;1.70;99.90;;;;;;5075537;28;20052;-74
2022/01/12 04:45:45;;;;;;;225.90;20.80;;;1.70;99.90;;;;;;5073577;28;20056;-74
2022/01/12 04:48:33;;;;;;;355.33;30.33;;;1.70;99.90;;;;;;5072796;28;20063;-74
2022/01/12 04:51:00;;;;;;;384.88;32.28;;;1.70;99.90;;;;;;5072924;28;20056;-74
2022/01/12 04:53:27;;;;;;;363.83;28.63;;;1.70;99.90;;;;;;5071887;28;20447;-74
2022/01/12 04:55:54;;;;;;;270.77;20.20;;;1.60;99.90;;;;;;5072213;28;20110;-74
2022/01/12 04:58:21;;;;;;;179.50;15.80;;;1.60;99.90;;;;;;5072810;28;20504;-74
2022/01/12 05:00:50;;;;;;;285.02;21.13;;;1.50;99.90;;;;;;5071477;28;20118;-74
2022/01/12 05:09:12;;;;;;;363.80;33.58;;;1.30;99.90;;;;;;5015444;28;20056;-78
2022/01/12 05:14:25;;;;;;;278.80;27.13;;;1.20;99.90;;;;;;5047490;28;20122;-73
2022/01/12 05:16:53;;;;;;;348.45;34.17;;;1.20;99.90;;;;;;5068765;28;20431;-74
2022/01/12 05:19:21;;;;;;;354.88;32.92;;;1.20;99.90;;;;;;5070985;28;20113;-73
2022/01/12 05:21:48;;;;;;;502.70;44.78;;;1.20;99.90;;;;;;5070523;28;20044;-74
2022/01/12 05:24:15;;;;;;;466.55;37.30;;;1.20;99.90;;;;;;5070543;28;20516;-72
2022/01/12 05:26:42;;;;;;;231.02;20.25;;;1.20;99.90;;;;;;5070641;28;20064;-73
2022/01/12 05:29:09;;;;;;;338.58;28.20;;;1.20;99.90;;;;;;5070096;28;20492;-73
2022/01/12 05:31:36;;;;;;;337.85;35.47;;;1.20;99.90;;;;;;5070721;28;20109;-73
2022/01/12 05:34:04;;;;;;;333.35;27.52;;;1.20;99.90;;;;;;5070467;28;20086;-72
2022/01/12 05:36:32;;;;;;;96.07;14.07;;;1.10;99.90;;;;;;5070231;28;20519;-73
2022/01/12 05:39:00;;;;;;;288.58;23.60;;;1.10;99.90;;;;;;5070734;28;20056;-74
2022/01/12 05:41:28;;;;;;;150.07;15.43;;;1.10;99.90;;;;;;5069720;28;20060;-74
2022/01/12 05:43:55;;;;;;;215.50;19.67;;;1.10;99.90;;;;;;5070327;28;20489;-74
2022/01/12 05:46:25;;;;;;;225.68;22.40;;;1.00;99.90;;;;;;5071276;28;20124;-74
2022/01/12 05:51:38;;;;;;;157.32;17.75;;;0.90;99.90;;;;;;5068937;28;20047;-74
2022/01/12 05:54:05;;;;;;;141.55;15.50;;;0.90;99.90;;;;;;5070167;28;20053;-73
2022/01/12 05:56:32;;;;;;;165.50;16.48;;;0.90;99.90;;;;;;5068833;28;20083;-74
2022/01/12 05:58:59;;;;;;;122.95;13.45;;;1.00;99.90;;;;;;5071099;28;20049;-73
2022/01/12 06:01:26;;;;;;;68.57;11.25;;;0.80;99.90;;;;;;5071888;28;20045;-74
2022/01/12 06:03:52;;;;;;;129.15;17.15;;;0.80;99.90;;;;;;5067309;28;20530;-74
2022/01/12 06:06:19;;;;;;;113.18;12.02;;;0.80;99.90;;;;;;5070678;28;20094;-73
2022/01/12 06:08:48;;;;;;;94.20;15.80;;;0.80;99.90;;;;;;5069436;28;20122;-74
2022/01/12 06:11:15;;;;;;;273.35;27.10;;;0.80;99.90;;;;;;5067679;28;20080;-74
2022/01/12 06:13:42;;;;;;;214.52;25.95;;;0.80;99.90;;;;;;5070757;28;20036;-74
2022/01/12 06:16:08;;;;;;;127.07;17.38;;;0.80;99.90;;;;;;5070602;28;20049;-74
2022/01/12 06:18:35;;;;;;;178.27;16.05;;;0.70;99.90;;;;;;5069941;28;20381;-74
2022/01/12 06:21:02;;;;;;;285.92;31.73;;;0.70;99.90;;;;;;5070629;28;20090;-74
2022/01/12 06:23:29;;;;;;;186.20;21.90;;;0.70;99.90;;;;;;5068964;28;20082;-74
2022/01/12 06:25:57;;;;;;;192.52;17.25;;;0.70;99.90;;;;;;5070720;28;20435;-74
2022/01/12 06:28:37;;;;;;;233.20;19.60;;;0.70;99.90;;;;;;5071672;28;20052;-73
2022/01/12 06:31:13;;;;;;;283.80;21.55;;;0.70;99.90;;;;;;5074529;28;20450;-73
2022/01/12 06:33:44;;;;;;;248.60;19.48;;;0.80;99.90;;;;;;5071154;28;20520;-73
2022/01/12 06:36:12;;;;;;;254.48;18.02;;;0.80;99.90;;;;;;5068997;28;20048;-73
2022/01/12 06:38:39;;;;;;;263.95;19.52;;;0.80;99.90;;;;;;5069652;28;20553;-73
2022/01/12 06:41:08;;;;;;;207.63;17.23;;;0.90;99.90;;;;;;5067961;28;20094;-74
2022/01/12 06:43:36;;;;;;;423.67;36.92;;;0.70;99.90;;;;;;5070437;28;20510;-73
2022/01/12 06:46:03;;;;;;;212.55;20.15;;;0.70;99.90;;;;;;5065388;28;20137;-74
2022/01/12 06:48:30;;;;;;;281.02;23.13;;;0.70;99.90;;;;;;5059955;28;20052;-73
2022/01/12 06:50:57;;;;;;;225.13;16.95;;;0.70;99.90;;;;;;5067465;28;20052;-74
2022/01/12 06:53:24;;;;;;;248.00;18.33;;;0.60;99.90;;;;;;5069534;28;20399;-73
2022/01/12 06:55:51;;;;;;;223.68;17.65;;;0.70;99.90;;;;;;5070940;28;20060;-73
2022/01/12 06:58:19;;;;;;;158.48;14.45;;;0.70;99.90;;;;;;5060110;28;20146;-72
2022/01/12 07:00:47;;;;;;;243.63;21.50;;;0.70;99.90;;;;;;5068494;28;20064;-75
2022/01/12 07:03:14;;;;;;;337.83;25.67;;;0.60;99.90;;;;;;5055903;28;20041;-74
2022/01/12 07:05:41;;;;;;;290.20;20.55;;;0.70;99.90;;;;;;5072756;28;20106;-75
2022/01/12 07:08:08;;;;;;;200.38;15.65;;;0.70;99.90;;;;;;5071964;28;20049;-74
2022/01/12 07:10:35;;;;;;;418.98;32.03;;;0.70;99.90;;;;;;5072929;28;20048;-74
2022/01/12 07:13:01;;;;;;;180.65;15.00;;;0.70;99.90;;;;;;5073191;28;20101;-75
2022/01/12 07:15:30;;;;;;;138.88;13.52;;;0.70;99.90;;;;;;5072581;28;20110;-74
2022/01/12 07:17:57;;;;;;;58.13;10.45;;;0.70;99.90;;;;;;5072504;28;20106;-75
2022/01/12 07:20:23;;;;;;;91.20;11.18;;;0.70;99.90;;;;;;5066457;28;20105;-74
2022/01/12 07:22:50;;;;;;;132.55;12.38;;;0.70;99.90;;;;;;5059862;28;20493;-73
2022/01/12 07:25:17;;;;;;;154.98;17.98;;;0.70;99.90;;;;;;5053041;28;20060;-75
2022/01/12 07:27:44;;;;;;;135.20;15.55;;;0.70;99.90;;;;;;5057577;28;20135;-74
2022/01/12 07:30:11;;;;;;;145.00;12.13;;;0.70;99.90;;;;;;5057733;28;20060;-74
2022/01/12 07:32:40;;;;;;;150.38;13.10;;;0.70;99.90;;;;;;5069301;28;20496;-74
2022/01/12 07:35:08;;;;;;;150.68;13.88;;;0.70;99.90;;;;;;5063118;28;20048;-74
2022/01/12 07:37:34;;;;;;;145.88;12.82;;;0.60;99.90;;;;;;5058727;28;20048;-76
2022/01/12 07:40:02;;;;;;;194.95;14.18;;;0.60;99.90;;;;;;5066990;28;20053;-74
2022/01/12 07:42:28;;;;;;;241.73;22.60;;;0.60;99.90;;;;;;5058437;28;20045;-74
2022/01/12 07:45:00;;;;;;;130.57;13.00;;;0.60;99.90;;;;;;5068704;28;20052;-75
2022/01/12 07:47:27;;;;;;;195.18;14.68;;;0.60;99.90;;;;;;5068764;28;20052;-74
2022/01/12 07:49:57;;;;;;;271.38;23.40;;;0.60;99.90;;;;;;5073319;28;20048;-74
2022/01/12 07:52:24;;;;;;;135.30;13.00;;;0.60;99.90;;;;;;5073217;28;20102;-74
2022/01/12 07:54:51;;;;;;;137.13;11.82;;;0.60;99.90;;;;;;5071239;28;20500;-74
2022/01/12 07:57:18;;;;;;;127.38;12.20;;;0.60;99.90;;;;;;5070997;28;20508;-75
2022/01/12 07:59:45;;;;;;;195.27;13.75;;;0.70;99.90;;;;;;5071791;28;20137;-75
2022/01/12 08:02:12;;;;;;;270.00;22.83;;;0.70;99.90;;;;;;5069729;28;20082;-75
2022/01/12 08:04:39;;;;;;;101.97;9.98;;;0.60;99.90;;;;;;5067638;28;20459;-74
2022/01/12 08:07:10;;;;;;;124.07;10.90;;;0.60;99.90;;;;;;5070389;28;20057;-74
2022/01/12 08:09:37;;;;;;;;;;;0.60;99.90;;;;;;5069019;28;20057;-74
2022/01/12 08:12:04;;;;;;;157.63;14.70;;;0.60;99.90;;;;;;5071825;28;20249;-74
2022/01/12 08:14:31;;;;;;;106.18;9.38;;;0.60;99.90;;;;;;5071608;28;20052;-74
2022/01/12 08:16:58;;;;;;;156.43;15.07;;;0.70;99.90;;;;;;5070098;28;20056;-74
2022/01/12 08:19:25;;;;;;;78.30;10.15;;;0.70;99.90;;;;;;5071106;28;20053;-75
2022/01/12 08:21:52;;;;;;;92.55;13.05;;;0.70;99.90;;;;;;5054702;28;20164;-74
2022/01/12 08:24:20;;;;;;;106.93;10.45;;;0.70;99.90;;;;;;5050932;28;20079;-75
2022/01/12 08:26:48;;;;;;;83.72;8.00;;;0.80;99.90;;;;;;5051495;28;20493;-74
2022/01/12 08:29:16;;;;;;;117.82;11.15;;;0.80;99.90;;;;;;5057752;28;20473;-74
2022/01/12 08:31:44;;;;;;;93.93;11.80;;;0.80;99.90;;;;;;5050757;28;20069;-75
2022/01/12 08:34:11;;;;;;;112.28;11.32;;;0.80;99.90;;;;;;5063256;28;20044;-75
2022/01/12 08:36:38;;;;;;;84.97;9.02;;;0.90;99.90;;;;;;5070630;28;20127;-75
2022/01/12 08:39:07;;;;;;;73.80;8.80;;;0.90;99.90;;;;;;5060128;28;20052;-74
2022/01/12 08:41:36;;;;;;;46.92;6.95;;;0.90;99.90;;;;;;5059719;28;20412;-75
2022/01/12 08:44:03;;;;;;;49.53;8.48;;;1.00;99.90;;;;;;5070590;28;20480;-75
2022/01/12 08:46:30;;;;;;;37.30;6.78;;;1.10;99.90;;;;;;5076266;28;20052;-75
2022/01/12 08:48:57;;;;;;;48.00;6.22;;;1.20;99.90;;;;;;5077750;28;20044;-75
2022/01/12 08:51:24;;;;;;;76.75;8.45;;;1.30;99.90;;;;;;5068618;28;20068;-74
2022/01/12 08:53:51;;;;;;;73.30;8.98;;;1.30;99.90;;;;;;5071259;28;20059;-75
2022/01/12 08:56:19;;;;;;;90.43;8.50;;;1.30;99.90;;;;;;5070398;28;20059;-75
2022/01/12 08:58:48;;;;;;;83.45;8.63;;;1.50;99.90;;;;;;5070602;28;20045;-75
2022/01/12 09:01:15;;;;;;;80.30;8.23;;;1.50;99.90;;;;;;5070694;28;20072;-75
2022/01/12 09:03:42;;;;;;;125.07;12.77;;;1.50;99.90;;;;;;5056480;28;20192;-74
2022/01/12 09:06:09;;;;;;;151.10;13.80;;;1.60;99.90;;;;;;5055883;28;21538;-76
2022/01/12 09:08:38;;;;;;;108.80;10.90;;;1.60;99.90;;;;;;5051189;28;20178;-74
2022/01/12 09:11:05;;;;;;;98.47;10.60;;;1.70;99.90;;;;;;5050625;28;20493;-74
2022/01/12 09:13:32;;;;;;;202.13;16.77;;;1.80;99.90;;;;;;5057177;28;20044;-74
2022/01/12 09:16:06;;;;;;;85.25;9.02;;;1.80;99.90;;;;;;5070222;28;20049;-74
2022/01/12 09:18:34;;;;;;;99.97;10.60;;;1.80;99.90;;;;;;5063718;28;20496;-73
2022/01/12 09:21:01;;;;;;;136.48;11.48;;;1.90;99.90;;;;;;5049290;28;20103;-74
2022/01/12 09:23:27;;;;;;;100.82;9.55;;;1.90;99.90;;;;;;5050828;28;20466;-73
2022/01/12 09:25:54;;;;;;;67.40;7.25;;;2.00;99.90;;;;;;5050697;28;20114;-74
2022/01/12 09:28:21;;;;;;;127.82;11.93;;;2.10;99.90;;;;;;5049991;28;20053;-72
2022/01/12 09:30:48;;;;;;;113.75;9.20;;;2.20;99.90;;;;;;5056213;28;20493;-74
2022/01/12 09:33:17;;;;;;;91.60;8.25;;;2.30;99.90;;;;;;5050363;28;20103;-73
2022/01/12 09:35:45;;;;;;;100.85;7.97;;;2.30;99.90;;;;;;5049842;28;20059;-74
2022/01/12 09:38:12;;;;;;;81.05;7.43;;;2.30;99.90;;;;;;5050506;28;20049;-74
2022/01/12 09:40:39;;;;;;;100.68;7.53;;;2.40;99.90;;;;;;5055170;28;20056;-75
2022/01/12 09:43:07;;;;;;;106.07;8.18;;;2.50;99.90;;;;;;5067966;28;20064;-73
2022/01/12 09:45:34;;;;;;;119.57;9.73;;;2.50;99.90;;;;;;5069643;28;20060;-73
2022/01/12 09:48:01;;;;;;;94.70;8.30;;;2.50;99.90;;;;;;5056159;28;20114;-75
2022/01/12 09:50:29;;;;;;;102.53;7.30;;;2.70;99.90;;;;;;5070352;28;20102;-74
2022/01/12 09:52:56;;;;;;;77.63;9.27;;;2.80;99.90;;;;;;5062646;28;20114;-75
2022/01/12 09:55:23;;;;;;;54.15;5.93;;;2.90;99.90;;;;;;5054615;28;20048;-75
2022/01/12 09:57:51;;;;;;;78.72;8.57;;;3.00;99.90;;;;;;5069550;28;20497;-74
2022/01/12 10:00:23;;;;;;;162.43;12.55;;;3.10;99.90;;;;;;5065167;28;20202;-75
2022/01/12 10:02:50;;;;;;;100.15;9.95;;;3.10;99.90;;;;;;5049011;28;20049;-74
2022/01/12 10:05:18;;;;;;;187.75;13.45;;;3.20;99.90;;;;;;5065747;28;20052;-75
2022/01/12 10:07:46;;;;;;;80.63;7.68;;;3.20;99.90;;;;;;5068826;28;20052;-74
2022/01/12 10:10:15;;;;;;;101.63;10.57;;;3.30;99.90;;;;;;5067025;28;20118;-75
2022/01/12 10:12:52;;;;;;;145.75;13.10;;;3.40;99.90;;;;;;5066439;28;20044;-74
2022/01/12 10:15:19;;;;;;;178.63;14.90;;;3.50;99.90;;;;;;5066823;28;20048;-74
2022/01/12 10:17:47;;;;;;;76.15;8.88;;;3.00;99.90;;;;;;5070601;28;20048;-74
2022/01/12 10:20:17;;;;;;;97.60;9.80;;;3.70;99.90;;;;;;5066970;28;20056;-75
2022/01/12 10:22:58;;;;;;;104.28;11.93;;;3.90;99.90;;;;;;5060294;28;20115;-75
2022/01/12 10:25:27;;;;;;;177.75;16.38;;;4.00;99.90;;;;;;5066892;28;20028;-75
2022/01/12 10:27:54;;;;;;;96.40;9.43;;;4.10;99.90;;;;;;5070441;28;20052;-74
2022/01/12 10:30:23;;;;;;;88.53;8.00;;;4.30;99.90;;;;;;5073722;28;20093;-76
2022/01/12 10:33:01;;;;;;;111.03;9.95;;;4.30;99.90;;;;;;5073175;28;20508;-75
2022/01/12 10:35:29;;;;;;;83.07;8.35;;;4.40;99.90;;;;;;5084447;28;20052;-75
2022/01/12 10:38:08;;;;;;;104.57;8.85;;;4.40;99.90;;;;;;5096276;28;20090;-75
2022/01/12 10:40:49;;;;;;;101.45;9.43;;;4.40;99.90;;;;;;5095086;28;20090;-75
2022/01/12 10:43:34;;;;;;;102.55;10.55;;;4.50;99.90;;;;;;5094634;28;20034;-76
2022/01/12 10:46:04;;;;;;;114.13;10.50;;;4.60;99.90;;;;;;5094062;28;20052;-76
2022/01/12 10:48:43;;;;;;;191.75;16.77;;;4.70;99.90;;;;;;5093866;28;20108;-75
2022/01/12 10:51:11;;;;;;;129.15;13.00;;;4.70;99.90;;;;;;5092793;28;20028;-75
2022/01/12 10:53:39;;;;;;;116.10;11.38;;;4.70;99.90;;;;;;5089857;28;20057;-73
2022/01/12 10:56:08;;;;;;;69.18;6.70;;;4.80;99.90;;;;;;5077635;28;20449;-75
2022/01/12 10:58:38;;;;;;;99.25;9.70;;;4.80;99.90;;;;;;5032010;28;1088508;-74
2022/01/12 11:01:05;;;;;;;174.48;14.82;;;4.80;99.90;;;;;;5089455;28;20495;-76
2022/01/12 11:03:32;;;;;;;76.63;7.43;;;4.80;99.90;;;;;;5062124;28;20065;-75
2022/01/12 11:05:59;;;;;;;53.00;7.13;;;4.90;99.90;;;;;;5061932;28;20049;-74
2022/01/12 11:08:27;;;;;;;72.05;9.43;;;4.90;99.90;;;;;;5073787;28;20561;-74
2022/01/12 11:10:57;;;;;;;38.10;5.35;;;5.00;99.90;;;;;;5067342;28;20052;-74
2022/01/12 11:13:24;;;;;;;78.72;9.07;;;5.10;99.90;;;;;;5080407;28;20122;-76
2022/01/12 11:15:52;;;;;;;84.93;10.43;;;5.10;99.90;;;;;;5090319;28;20037;-74
2022/01/12 11:18:23;;;;;;;71.10;10.40;;;5.20;99.90;;;;;;5069970;28;20105;-75
2022/01/12 11:20:52;;;;;;;33.17;6.13;;;5.30;99.90;;;;;;5067701;28;20055;-75
2022/01/12 11:23:20;;;;;;;46.45;5.80;;;5.30;99.90;;;;;;5065187;28;20407;-76
2022/01/12 11:25:49;;;;;;;81.88;11.43;;;5.40;99.90;;;;;;5052831;28;20052;-75
2022/01/12 11:28:19;;;;;;;66.00;6.05;;;5.40;99.90;;;;;;5069320;28;20094;-77
2022/01/12 11:30:59;;;;;;;46.47;6.90;;;5.40;99.90;;;;;;5065371;28;20044;-76
2022/01/12 11:33:37;;;;;;;41.55;7.10;;;5.50;99.90;;;;;;5053791;28;20080;-75
2022/01/12 11:36:06;;;;;;;81.93;10.95;;;5.50;99.90;;;;;;5086451;28;20135;-75
2022/01/12 11:38:35;;;;;;;43.08;7.93;;;5.60;99.90;;;;;;5069457;28;20052;-76
2022/01/12 11:41:11;;;;;;;63.45;9.48;;;5.70;99.90;;;;;;5061276;28;20053;-75
2022/01/12 11:43:45;;;;;;;19.45;5.03;;;5.70;99.90;;;;;;5068891;28;20080;-74
2022/01/12 11:46:14;;;;;;;57.30;7.85;;;5.80;99.90;;;;;;5068877;28;20053;-75
2022/01/12 11:48:46;;;;;;;22.52;5.88;;;5.80;99.90;;;;;;5066194;28;20161;-74
2022/01/12 11:51:16;;;;;;;33.00;6.38;;;5.70;99.90;;;;;;5081134;28;20044;-76
2022/01/12 11:53:51;;;;;;;53.33;8.20;;;5.70;99.90;;;;;;5063615;28;20053;-75
2022/01/12 11:56:20;;;;;;;28.77;7.82;;;5.60;99.90;;;;;;5068702;28;20094;-74
2022/01/12 11:59:10;;;;;;;28.33;7.53;;;5.60;99.90;;;;;;5066350;28;20101;-75
2022/01/12 12:01:40;;;;;;;22.85;6.72;;;5.50;99.90;;;;;;5052128;28;20405;-74
2022/01/12 12:04:08;;;;;;;26.88;6.50;;;5.50;99.90;;;;;;5076745;28;20066;-74
2022/01/12 12:06:35;;;;;;;31.60;7.28;;;5.50;99.90;;;;;;5066929;28;20060;-75
2022/01/12 12:09:05;;;;;;;20.95;6.75;;;5.60;99.90;;;;;;5085534;28;20778;-74
2022/01/12 12:11:33;;;;;;;26.70;8.25;;;5.60;99.90;;;;;;5071489;28;20412;-74
2022/01/12 12:14:05;;;;;;;22.10;6.45;;;5.70;99.90;;;;;;5071186;28;20052;-75
2022/01/12 12:16:35;;;;;;;19.50;8.38;;;5.70;99.90;;;;;;5069164;28;20450;-75
2022/01/12 12:19:04;;;;;;;18.23;7.10;;;5.80;99.90;;;;;;5070698;28;20102;-75
2022/01/12 12:21:31;;;;;;;35.53;7.78;;;5.90;99.90;;;;;;5064257;28;20114;-75
2022/01/12 12:24:12;;;;;;;30.05;8.13;;;6.00;99.90;;;;;;5070406;28;20476;-76
2022/01/12 12:26:45;;;;;;;22.27;9.32;;;6.10;99.90;;;;;;5071044;28;20044;-74
2022/01/12 12:29:14;;;;;;;40.03;8.32;;;6.10;99.90;;;;;;5054951;28;20408;-74
2022/01/12 12:31:46;;;;;;;29.73;8.90;;;6.20;99.90;;;;;;5052921;28;20056;-75
2022/01/12 12:34:14;;;;;;;25.77;7.93;;;6.10;99.90;;;;;;5062086;28;20048;-75
2022/01/12 12:36:41;;;;;;;36.40;11.43;;;6.20;99.90;;;;;;5060444;28;20166;-75
2022/01/12 12:39:10;;;;;;;25.95;8.32;;;6.20;99.90;;;;;;5070136;28;20053;-75
2022/01/12 12:41:39;;;;;;;19.00;8.20;;;6.20;99.90;;;;;;5055915;28;20053;-73
2022/01/12 12:44:06;;;;;;;21.75;8.70;;;6.20;99.90;;;;;;5049806;28;20050;-73
2022/01/12 12:46:34;;;;;;;22.50;9.40;;;6.30;99.90;;;;;;5056891;28;20087;-73
2022/01/12 12:49:09;;;;;;;19.95;7.75;;;6.30;99.90;;;;;;5056454;28;20123;-74
2022/01/12 12:51:36;;;;;;;19.33;8.23;;;6.30;99.90;;;;;;5054720;28;20526;-74
2022/01/12 12:54:03;;;;;;;27.17;8.43;;;6.30;99.90;;;;;;5051545;28;20119;-74
2022/01/12 12:56:39;;;;;;;19.63;8.10;;;6.40;99.90;;;;;;5052733;28;20072;-75
2022/01/12 12:59:07;;;;;;;22.20;8.50;;;6.50;99.90;;;;;;5062947;28;20788;-75
2022/01/12 13:01:34;;;;;;;17.88;8.57;;;6.40;99.90;;;;;;5069489;28;20059;-75
2022/01/12 13:04:03;;;;;;;18.23;7.88;;;6.70;99.90;;;;;;5070330;28;20057;-75
2022/01/12 13:06:33;;;;;;;24.02;7.95;;;6.70;99.90;;;;;;5063482;28;20044;-75
2022/01/12 13:09:03;;;;;;;17.20;8.70;;;6.70;99.90;;;;;;5060454;28;20052;-75
2022/01/12 13:11:31;;;;;;;18.05;8.80;;;6.50;99.90;;;;;;5052731;28;20056;-74
2022/01/12 13:13:58;;;;;;;20.45;8.07;;;6.50;99.90;;;;;;5069911;28;20131;-75
2022/01/12 13:16:26;;;;;;;16.60;8.68;;;6.70;99.90;;;;;;5070086;28;20072;-75
2022/01/12 13:19:03;;;;;;;20.75;8.70;;;6.90;99.90;;;;;;5054204;28;20107;-75
2022/01/12 13:21:31;;;;;;;24.17;9.65;;;7.10;99.90;;;;;;5064677;28;20068;-73
2022/01/12 13:24:02;;;;;;;21.38;7.60;;;7.20;99.90;;;;;;5070846;28;20044;-75
2022/01/12 13:26:35;;;;;;;12.35;7.22;;;7.20;99.90;;;;;;5064866;28;20078;-75
2022/01/12 13:29:08;;;;;;;15.65;8.13;;;7.20;99.90;;;;;;5069229;28;20053;-74
2022/01/12 13:31:35;;;;;;;22.27;7.55;;;7.40;99.90;;;;;;5066943;28;20545;-76
2022/01/12 13:34:04;;;;;;;19.02;8.10;;;7.40;99.90;;;;;;5056371;28;20060;-75
2022/01/12 13:36:34;;;;;;;17.77;7.75;;;7.40;99.90;;;;;;5063082;28;20075;-75
2022/01/12 13:39:05;;;;;;;18.52;8.02;;;7.20;99.90;;;;;;5065118;28;20515;-76
2022/01/12 13:41:35;;;;;;;15.45;8.15;;;7.10;99.90;;;;;;5067919;28;20072;-75
2022/01/12 13:44:06;;;;;;;20.48;7.32;;;7.00;99.90;;;;;;5062893;28;20049;-74
2022/01/12 13:46:35;;;;;;;17.60;7.90;;;6.70;99.90;;;;;;5054669;28;20059;-75